sensor_id;sensor_type;location;lat;lon;timestamp;P1;durP1;ratioP1;P2;durP2;ratioP2
34832;SDS011;55941;50.800;4.342;2022-10-01T00:02:05;18.05;;;7.70;;
34832;SDS011;55941;50.800;4.342;2022-10-01T00:04:33;10.23;;;7.07;;
34832;SDS011;55941;50.800;4.342;2022-10-01T00:07:01;11.05;;;7.18;;
34832;SDS011;55941;50.800;4.342;2022-10-01T00:09:29;9.18;;;6.05;;
34832;SDS011;55941;50.800;4.342;2022-10-01T00:11:56;11.15;;;6.47;;
34832;SDS011;55941;50.800;4.342;2022-10-01T00:14:24;8.15;;;5.97;;
34832;SDS011;55941;50.800;4.342;2022-10-01T00:16:51;12.50;;;6.20;;
34832;SDS011;55941;50.800;4.342;2022-10-01T00:19:20;11.50;;;6.30;;
34832;SDS011;55941;50.800;4.342;2022-10-01T00:21:46;8.45;;;5.70;;
34832;SDS011;55941;50.800;4.342;2022-10-01T00:24:13;10.48;;;5.93;;
34832;SDS011;55941;50.800;4.342;2022-10-01T00:26:40;7.22;;;5.00;;
34832;SDS011;55941;50.800;4.342;2022-10-01T00:29:09;8.73;;;4.50;;
34832;SDS011;55941;50.800;4.342;2022-10-01T00:31:37;7.15;;;4.07;;
34832;SDS011;55941;50.800;4.342;2022-10-01T00:34:04;7.22;;;3.88;;
34832;SDS011;55941;50.800;4.342;2022-10-01T00:36:30;9.52;;;3.80;;
34832;SDS011;55941;50.800;4.342;2022-10-01T00:38:57;16.20;;;4.38;;
34832;SDS011;55941;50.800;4.342;2022-10-01T00:41:25;7.68;;;3.63;;
34832;SDS011;55941;50.800;4.342;2022-10-01T00:43:57;9.43;;;3.67;;
34832;SDS011;55941;50.800;4.342;2022-10-01T00:46:36;7.82;;;3.22;;
34832;SDS011;55941;50.800;4.342;2022-10-01T00:49:07;8.77;;;2.80;;
34832;SDS011;55941;50.800;4.342;2022-10-01T00:51:55;4.45;;;2.55;;
34832;SDS011;55941;50.800;4.342;2022-10-01T00:54:36;7.78;;;2.40;;
34832;SDS011;55941;50.800;4.342;2022-10-01T00:57:05;6.35;;;2.17;;
34832;SDS011;55941;50.800;4.342;2022-10-01T00:59:32;4.38;;;2.25;;
34832;SDS011;55941;50.800;4.342;2022-10-01T01:02:01;6.20;;;2.47;;
34832;SDS011;55941;50.800;4.342;2022-10-01T01:04:26;5.07;;;2.40;;
34832;SDS011;55941;50.800;4.342;2022-10-01T01:06:53;5.10;;;2.20;;
34832;SDS011;55941;50.800;4.342;2022-10-01T01:09:43;5.13;;;1.95;;
34832;SDS011;55941;50.800;4.342;2022-10-01T01:14:45;3.30;;;1.98;;
34832;SDS011;55941;50.800;4.342;2022-10-01T01:17:45;2.42;;;2.00;;
34832;SDS011;55941;50.800;4.342;2022-10-01T01:20:41;4.47;;;2.08;;
34832;SDS011;55941;50.800;4.342;2022-10-01T01:25:46;4.00;;;2.13;;
34832;SDS011;55941;50.800;4.342;2022-10-01T01:30:48;2.83;;;1.90;;
34832;SDS011;55941;50.800;4.342;2022-10-01T01:33:20;6.68;;;1.70;;
34832;SDS011;55941;50.800;4.342;2022-10-01T01:35:53;4.53;;;1.55;;
34832;SDS011;55941;50.800;4.342;2022-10-01T01:38:25;4.20;;;1.50;;
34832;SDS011;55941;50.800;4.342;2022-10-01T01:40:55;10.40;;;1.73;;
34832;SDS011;55941;50.800;4.342;2022-10-01T01:43:30;2.15;;;1.20;;
34832;SDS011;55941;50.800;4.342;2022-10-01T01:46:01;0.90;;;0.90;;
34832;SDS011;55941;50.800;4.342;2022-10-01T01:48:29;1.67;;;0.98;;
34832;SDS011;55941;50.800;4.342;2022-10-01T01:51:07;3.28;;;1.27;;
34832;SDS011;55941;50.800;4.342;2022-10-01T01:53:56;4.35;;;1.35;;
34832;SDS011;55941;50.800;4.342;2022-10-01T01:56:22;1.77;;;1.20;;
34832;SDS011;55941;50.800;4.342;2022-10-01T01:58:49;2.08;;;1.35;;
34832;SDS011;55941;50.800;4.342;2022-10-01T02:01:29;3.72;;;1.48;;
34832;SDS011;55941;50.800;4.342;2022-10-01T02:04:28;5.32;;;1.48;;
34832;SDS011;55941;50.800;4.342;2022-10-01T02:09:48;2.15;;;1.40;;
34832;SDS011;55941;50.800;4.342;2022-10-01T02:14:57;12.15;;;1.58;;
34832;SDS011;55941;50.800;4.342;2022-10-01T02:17:39;4.78;;;1.40;;
34832;SDS011;55941;50.800;4.342;2022-10-01T02:21:05;3.33;;;1.20;;
34832;SDS011;55941;50.800;4.342;2022-10-01T02:23:15;2.75;;;1.05;;
34832;SDS011;55941;50.800;4.342;2022-10-01T02:25:48;1.92;;;0.90;;
34832;SDS011;55941;50.800;4.342;2022-10-01T02:28:20;2.90;;;1.20;;
34832;SDS011;55941;50.800;4.342;2022-10-01T02:30:47;2.10;;;0.98;;
34832;SDS011;55941;50.800;4.342;2022-10-01T02:33:26;7.43;;;1.33;;
34832;SDS011;55941;50.800;4.342;2022-10-01T02:35:55;0.82;;;0.82;;
34832;SDS011;55941;50.800;4.342;2022-10-01T02:38:24;3.92;;;0.80;;
34832;SDS011;55941;50.800;4.342;2022-10-01T02:40:52;1.50;;;0.70;;
34832;SDS011;55941;50.800;4.342;2022-10-01T02:43:24;1.08;;;0.60;;
34832;SDS011;55941;50.800;4.342;2022-10-01T02:45:56;1.40;;;0.70;;
34832;SDS011;55941;50.800;4.342;2022-10-01T02:48:28;0.60;;;0.60;;
34832;SDS011;55941;50.800;4.342;2022-10-01T02:51:02;1.38;;;1.00;;
34832;SDS011;55941;50.800;4.342;2022-10-01T02:53:41;3.35;;;1.00;;
34832;SDS011;55941;50.800;4.342;2022-10-01T02:56:11;1.02;;;1.00;;
34832;SDS011;55941;50.800;4.342;2022-10-01T02:59:07;1.70;;;1.35;;
34832;SDS011;55941;50.800;4.342;2022-10-01T03:01:34;2.92;;;1.35;;
34832;SDS011;55941;50.800;4.342;2022-10-01T03:04:02;2.92;;;1.15;;
34832;SDS011;55941;50.800;4.342;2022-10-01T03:06:27;3.13;;;1.45;;
34832;SDS011;55941;50.800;4.342;2022-10-01T03:08:54;2.13;;;1.23;;
34832;SDS011;55941;50.800;4.342;2022-10-01T03:11:22;3.78;;;1.60;;
34832;SDS011;55941;50.800;4.342;2022-10-01T03:13:48;1.70;;;1.60;;
34832;SDS011;55941;50.800;4.342;2022-10-01T03:16:14;1.85;;;1.30;;
34832;SDS011;55941;50.800;4.342;2022-10-01T03:18:40;3.22;;;1.67;;
34832;SDS011;55941;50.800;4.342;2022-10-01T03:21:06;5.25;;;1.48;;
34832;SDS011;55941;50.800;4.342;2022-10-01T03:23:32;4.82;;;1.70;;
34832;SDS011;55941;50.800;4.342;2022-10-01T03:25:58;3.58;;;1.90;;
34832;SDS011;55941;50.800;4.342;2022-10-01T03:28:24;2.35;;;1.80;;
34832;SDS011;55941;50.800;4.342;2022-10-01T03:30:50;4.32;;;2.15;;
34832;SDS011;55941;50.800;4.342;2022-10-01T03:33:16;2.55;;;2.10;;
34832;SDS011;55941;50.800;4.342;2022-10-01T03:35:41;2.63;;;2.13;;
34832;SDS011;55941;50.800;4.342;2022-10-01T03:38:07;3.03;;;2.10;;
34832;SDS011;55941;50.800;4.342;2022-10-01T03:40:33;3.15;;;1.95;;
34832;SDS011;55941;50.800;4.342;2022-10-01T03:43:02;3.53;;;2.08;;
34832;SDS011;55941;50.800;4.342;2022-10-01T03:45:29;6.22;;;2.10;;
34832;SDS011;55941;50.800;4.342;2022-10-01T03:47:54;2.90;;;2.25;;
34832;SDS011;55941;50.800;4.342;2022-10-01T03:50:20;5.20;;;2.55;;
34832;SDS011;55941;50.800;4.342;2022-10-01T03:52:46;3.35;;;2.28;;
34832;SDS011;55941;50.800;4.342;2022-10-01T03:55:12;3.13;;;2.00;;
34832;SDS011;55941;50.800;4.342;2022-10-01T03:57:38;2.33;;;2.08;;
34832;SDS011;55941;50.800;4.342;2022-10-01T04:00:03;3.67;;;2.00;;
34832;SDS011;55941;50.800;4.342;2022-10-01T04:02:31;6.38;;;1.70;;
34832;SDS011;55941;50.800;4.342;2022-10-01T04:04:56;2.85;;;2.05;;
34832;SDS011;55941;50.800;4.342;2022-10-01T04:07:23;3.53;;;1.90;;
34832;SDS011;55941;50.800;4.342;2022-10-01T04:09:49;2.00;;;1.70;;
34832;SDS011;55941;50.800;4.342;2022-10-01T04:12:15;1.60;;;1.50;;
34832;SDS011;55941;50.800;4.342;2022-10-01T04:14:43;3.50;;;1.55;;
34832;SDS011;55941;50.800;4.342;2022-10-01T04:17:09;1.85;;;1.50;;
34832;SDS011;55941;50.800;4.342;2022-10-01T04:19:35;6.88;;;1.75;;
34832;SDS011;55941;50.800;4.342;2022-10-01T04:22:01;2.03;;;1.40;;
34832;SDS011;55941;50.800;4.342;2022-10-01T04:24:27;4.90;;;1.65;;
34832;SDS011;55941;50.800;4.342;2022-10-01T04:26:52;3.25;;;1.67;;
34832;SDS011;55941;50.800;4.342;2022-10-01T04:29:18;4.25;;;1.63;;
34832;SDS011;55941;50.800;4.342;2022-10-01T04:31:44;2.17;;;1.50;;
34832;SDS011;55941;50.800;4.342;2022-10-01T04:34:09;2.15;;;1.40;;
34832;SDS011;55941;50.800;4.342;2022-10-01T04:36:36;3.90;;;1.17;;
34832;SDS011;55941;50.800;4.342;2022-10-01T04:39:02;2.95;;;1.45;;
34832;SDS011;55941;50.800;4.342;2022-10-01T04:41:28;2.88;;;1.25;;
34832;SDS011;55941;50.800;4.342;2022-10-01T04:43:56;4.25;;;1.25;;
34832;SDS011;55941;50.800;4.342;2022-10-01T04:46:23;3.53;;;1.17;;
34832;SDS011;55941;50.800;4.342;2022-10-01T04:48:49;1.65;;;1.17;;
34832;SDS011;55941;50.800;4.342;2022-10-01T04:51:15;4.65;;;1.20;;
34832;SDS011;55941;50.800;4.342;2022-10-01T04:53:41;3.25;;;1.25;;
34832;SDS011;55941;50.800;4.342;2022-10-01T04:56:08;1.92;;;1.48;;
34832;SDS011;55941;50.800;4.342;2022-10-01T04:58:33;4.40;;;1.10;;
34832;SDS011;55941;50.800;4.342;2022-10-01T05:00:59;2.85;;;1.45;;
34832;SDS011;55941;50.800;4.342;2022-10-01T05:03:25;4.28;;;1.27;;
34832;SDS011;55941;50.800;4.342;2022-10-01T05:05:52;2.75;;;1.30;;
34832;SDS011;55941;50.800;4.342;2022-10-01T05:08:17;3.03;;;1.13;;
34832;SDS011;55941;50.800;4.342;2022-10-01T05:10:43;4.80;;;1.45;;
34832;SDS011;55941;50.800;4.342;2022-10-01T05:13:09;5.35;;;1.40;;
34832;SDS011;55941;50.800;4.342;2022-10-01T05:15:35;2.85;;;1.23;;
34832;SDS011;55941;50.800;4.342;2022-10-01T05:18:00;3.20;;;1.40;;
34832;SDS011;55941;50.800;4.342;2022-10-01T05:20:28;2.65;;;1.20;;
34832;SDS011;55941;50.800;4.342;2022-10-01T05:22:53;3.92;;;1.30;;
34832;SDS011;55941;50.800;4.342;2022-10-01T05:25:20;9.93;;;1.38;;
34832;SDS011;55941;50.800;4.342;2022-10-01T05:27:46;9.50;;;1.55;;
34832;SDS011;55941;50.800;4.342;2022-10-01T05:30:12;2.28;;;1.10;;
34832;SDS011;55941;50.800;4.342;2022-10-01T05:32:51;3.05;;;1.23;;
34832;SDS011;55941;50.800;4.342;2022-10-01T05:35:19;2.92;;;1.25;;
34832;SDS011;55941;50.800;4.342;2022-10-01T05:37:44;3.97;;;1.67;;
34832;SDS011;55941;50.800;4.342;2022-10-01T05:40:10;5.68;;;1.67;;
34832;SDS011;55941;50.800;4.342;2022-10-01T05:42:36;9.15;;;1.88;;
34832;SDS011;55941;50.800;4.342;2022-10-01T05:45:01;8.60;;;1.70;;
34832;SDS011;55941;50.800;4.342;2022-10-01T05:47:27;5.70;;;1.60;;
34832;SDS011;55941;50.800;4.342;2022-10-01T05:49:52;5.25;;;1.90;;
34832;SDS011;55941;50.800;4.342;2022-10-01T05:52:18;8.68;;;1.70;;
34832;SDS011;55941;50.800;4.342;2022-10-01T05:54:44;5.00;;;2.00;;
34832;SDS011;55941;50.800;4.342;2022-10-01T05:57:09;8.20;;;1.92;;
34832;SDS011;55941;50.800;4.342;2022-10-01T05:59:35;7.10;;;2.10;;
34832;SDS011;55941;50.800;4.342;2022-10-01T06:02:01;5.68;;;2.00;;
34832;SDS011;55941;50.800;4.342;2022-10-01T06:04:28;5.53;;;2.47;;
34832;SDS011;55941;50.800;4.342;2022-10-01T06:06:53;5.10;;;2.15;;
34832;SDS011;55941;50.800;4.342;2022-10-01T06:09:20;6.07;;;2.40;;
34832;SDS011;55941;50.800;4.342;2022-10-01T06:11:45;8.65;;;2.10;;
34832;SDS011;55941;50.800;4.342;2022-10-01T06:14:12;9.38;;;2.45;;
34832;SDS011;55941;50.800;4.342;2022-10-01T06:16:38;5.53;;;2.63;;
34832;SDS011;55941;50.800;4.342;2022-10-01T06:19:05;14.07;;;2.72;;
34832;SDS011;55941;50.800;4.342;2022-10-01T06:21:30;10.13;;;3.00;;
34832;SDS011;55941;50.800;4.342;2022-10-01T06:23:56;5.20;;;3.22;;
34832;SDS011;55941;50.800;4.342;2022-10-01T06:26:22;10.20;;;2.83;;
34832;SDS011;55941;50.800;4.342;2022-10-01T06:28:48;11.40;;;3.30;;
34832;SDS011;55941;50.800;4.342;2022-10-01T06:31:15;14.32;;;3.15;;
34832;SDS011;55941;50.800;4.342;2022-10-01T06:33:41;12.02;;;3.90;;
34832;SDS011;55941;50.800;4.342;2022-10-01T06:36:07;13.95;;;3.63;;
34832;SDS011;55941;50.800;4.342;2022-10-01T06:38:34;8.82;;;3.72;;
34832;SDS011;55941;50.800;4.342;2022-10-01T06:41:00;9.02;;;4.03;;
34832;SDS011;55941;50.800;4.342;2022-10-01T06:43:28;10.77;;;3.88;;
34832;SDS011;55941;50.800;4.342;2022-10-01T06:45:55;17.45;;;4.07;;
34832;SDS011;55941;50.800;4.342;2022-10-01T06:48:21;15.90;;;4.13;;
34832;SDS011;55941;50.800;4.342;2022-10-01T06:50:48;13.73;;;4.72;;
34832;SDS011;55941;50.800;4.342;2022-10-01T06:53:15;15.18;;;4.40;;
34832;SDS011;55941;50.800;4.342;2022-10-01T06:55:41;14.93;;;4.90;;
34832;SDS011;55941;50.800;4.342;2022-10-01T07:00:46;20.98;;;5.25;;
34832;SDS011;55941;50.800;4.342;2022-10-01T07:03:16;19.33;;;5.13;;
34832;SDS011;55941;50.800;4.342;2022-10-01T07:05:44;14.65;;;5.30;;
34832;SDS011;55941;50.800;4.342;2022-10-01T07:08:10;24.48;;;6.35;;
34832;SDS011;55941;50.800;4.342;2022-10-01T07:10:37;22.10;;;6.10;;
34832;SDS011;55941;50.800;4.342;2022-10-01T07:15:33;15.38;;;5.15;;
34832;SDS011;55941;50.800;4.342;2022-10-01T07:17:59;25.50;;;5.53;;
34832;SDS011;55941;50.800;4.342;2022-10-01T07:20:25;24.50;;;5.78;;
34832;SDS011;55941;50.800;4.342;2022-10-01T07:22:55;23.25;;;5.30;;
34832;SDS011;55941;50.800;4.342;2022-10-01T07:25:23;28.90;;;5.50;;
34832;SDS011;55941;50.800;4.342;2022-10-01T07:27:52;19.80;;;5.43;;
34832;SDS011;55941;50.800;4.342;2022-10-01T07:30:22;30.77;;;5.50;;
34832;SDS011;55941;50.800;4.342;2022-10-01T07:32:48;28.60;;;5.05;;
34832;SDS011;55941;50.800;4.342;2022-10-01T07:35:14;23.70;;;4.78;;
34832;SDS011;55941;50.800;4.342;2022-10-01T07:37:41;28.27;;;4.95;;
34832;SDS011;55941;50.800;4.342;2022-10-01T07:40:07;26.20;;;5.15;;
34832;SDS011;55941;50.800;4.342;2022-10-01T07:42:33;33.42;;;5.35;;
34832;SDS011;55941;50.800;4.342;2022-10-01T07:44:59;30.27;;;5.80;;
34832;SDS011;55941;50.800;4.342;2022-10-01T07:47:28;41.28;;;5.00;;
34832;SDS011;55941;50.800;4.342;2022-10-01T07:49:54;23.08;;;5.07;;
34832;SDS011;55941;50.800;4.342;2022-10-01T07:52:19;28.40;;;4.50;;
34832;SDS011;55941;50.800;4.342;2022-10-01T07:54:45;35.50;;;5.53;;
34832;SDS011;55941;50.800;4.342;2022-10-01T07:57:12;29.75;;;4.95;;
34832;SDS011;55941;50.800;4.342;2022-10-01T07:59:38;28.85;;;5.05;;
34832;SDS011;55941;50.800;4.342;2022-10-01T08:02:08;34.70;;;5.40;;
34832;SDS011;55941;50.800;4.342;2022-10-01T08:04:39;34.83;;;5.20;;
34832;SDS011;55941;50.800;4.342;2022-10-01T08:07:23;31.38;;;4.95;;
34832;SDS011;55941;50.800;4.342;2022-10-01T08:09:49;29.27;;;4.50;;
34832;SDS011;55941;50.800;4.342;2022-10-01T08:12:14;33.65;;;4.53;;
34832;SDS011;55941;50.800;4.342;2022-10-01T08:14:41;36.17;;;5.45;;
34832;SDS011;55941;50.800;4.342;2022-10-01T08:17:07;28.10;;;4.80;;
34832;SDS011;55941;50.800;4.342;2022-10-01T08:19:33;24.85;;;4.03;;
34832;SDS011;55941;50.800;4.342;2022-10-01T08:22:00;25.52;;;4.05;;
34832;SDS011;55941;50.800;4.342;2022-10-01T08:24:26;29.20;;;4.47;;
34832;SDS011;55941;50.800;4.342;2022-10-01T08:26:54;29.48;;;4.43;;
34832;SDS011;55941;50.800;4.342;2022-10-01T08:29:21;31.35;;;4.70;;
34832;SDS011;55941;50.800;4.342;2022-10-01T08:31:47;26.10;;;4.65;;
34832;SDS011;55941;50.800;4.342;2022-10-01T08:34:14;31.80;;;5.05;;
34832;SDS011;55941;50.800;4.342;2022-10-01T08:36:39;25.85;;;4.35;;
34832;SDS011;55941;50.800;4.342;2022-10-01T08:39:05;35.45;;;5.32;;
34832;SDS011;55941;50.800;4.342;2022-10-01T08:41:48;30.13;;;6.03;;
34832;SDS011;55941;50.800;4.342;2022-10-01T08:44:29;32.25;;;4.75;;
34832;SDS011;55941;50.800;4.342;2022-10-01T08:47:05;45.88;;;7.32;;
34832;SDS011;55941;50.800;4.342;2022-10-01T08:49:41;31.75;;;4.55;;
34832;SDS011;55941;50.800;4.342;2022-10-01T08:52:21;27.55;;;4.60;;
34832;SDS011;55941;50.800;4.342;2022-10-01T08:55:01;31.98;;;4.22;;
34832;SDS011;55941;50.800;4.342;2022-10-01T08:57:50;28.77;;;4.95;;
34832;SDS011;55941;50.800;4.342;2022-10-01T09:00:20;32.58;;;4.75;;
34832;SDS011;55941;50.800;4.342;2022-10-01T09:02:46;27.35;;;4.43;;
34832;SDS011;55941;50.800;4.342;2022-10-01T09:07:55;17.67;;;3.65;;
34832;SDS011;55941;50.800;4.342;2022-10-01T09:11:07;22.38;;;4.43;;
34832;SDS011;55941;50.800;4.342;2022-10-01T09:19:39;18.45;;;3.47;;
34832;SDS011;55941;50.800;4.342;2022-10-01T09:27:48;25.48;;;5.60;;
34832;SDS011;55941;50.800;4.342;2022-10-01T09:30:17;19.88;;;4.32;;
34832;SDS011;55941;50.800;4.342;2022-10-01T09:32:49;28.02;;;4.28;;
34832;SDS011;55941;50.800;4.342;2022-10-01T09:40:58;29.80;;;3.97;;
34832;SDS011;55941;50.800;4.342;2022-10-01T09:43:28;27.60;;;4.28;;
34832;SDS011;55941;50.800;4.342;2022-10-01T09:45:56;21.30;;;4.30;;
34832;SDS011;55941;50.800;4.342;2022-10-01T09:48:28;24.02;;;3.50;;
34832;SDS011;55941;50.800;4.342;2022-10-01T09:50:56;15.85;;;3.20;;
34832;SDS011;55941;50.800;4.342;2022-10-01T09:56:45;22.13;;;3.78;;
34832;SDS011;55941;50.800;4.342;2022-10-01T09:59:21;20.38;;;4.22;;
34832;SDS011;55941;50.800;4.342;2022-10-01T10:01:54;23.63;;;4.35;;
34832;SDS011;55941;50.800;4.342;2022-10-01T10:04:25;26.40;;;4.20;;
34832;SDS011;55941;50.800;4.342;2022-10-01T10:06:57;28.77;;;4.50;;
34832;SDS011;55941;50.800;4.342;2022-10-01T10:09:27;26.63;;;3.78;;
34832;SDS011;55941;50.800;4.342;2022-10-01T10:11:55;30.08;;;4.57;;
34832;SDS011;55941;50.800;4.342;2022-10-01T10:14:30;23.40;;;3.80;;
34832;SDS011;55941;50.800;4.342;2022-10-01T10:17:02;18.15;;;4.07;;
34832;SDS011;55941;50.800;4.342;2022-10-01T10:19:36;22.85;;;4.22;;
34832;SDS011;55941;50.800;4.342;2022-10-01T10:22:12;22.83;;;3.92;;
34832;SDS011;55941;50.800;4.342;2022-10-01T10:24:49;18.92;;;3.60;;
34832;SDS011;55941;50.800;4.342;2022-10-01T10:30:04;22.38;;;3.90;;
34832;SDS011;55941;50.800;4.342;2022-10-01T10:32:32;22.85;;;3.45;;
34832;SDS011;55941;50.800;4.342;2022-10-01T10:35:00;22.02;;;3.97;;
34832;SDS011;55941;50.800;4.342;2022-10-01T10:37:35;19.17;;;3.65;;
34832;SDS011;55941;50.800;4.342;2022-10-01T10:40:02;21.85;;;3.45;;
34832;SDS011;55941;50.800;4.342;2022-10-01T10:42:32;20.33;;;3.58;;
34832;SDS011;55941;50.800;4.342;2022-10-01T10:45:00;22.50;;;4.53;;
34832;SDS011;55941;50.800;4.342;2022-10-01T10:47:28;20.30;;;3.85;;
34832;SDS011;55941;50.800;4.342;2022-10-01T10:49:56;20.50;;;4.18;;
34832;SDS011;55941;50.800;4.342;2022-10-01T10:52:29;29.98;;;3.92;;
34832;SDS011;55941;50.800;4.342;2022-10-01T10:54:57;28.08;;;4.15;;
34832;SDS011;55941;50.800;4.342;2022-10-01T10:57:28;24.52;;;3.75;;
34832;SDS011;55941;50.800;4.342;2022-10-01T10:59:59;26.10;;;4.05;;
34832;SDS011;55941;50.800;4.342;2022-10-01T11:02:26;23.40;;;3.72;;
34832;SDS011;55941;50.800;4.342;2022-10-01T11:04:54;23.20;;;4.03;;
34832;SDS011;55941;50.800;4.342;2022-10-01T11:07:23;24.77;;;3.42;;
34832;SDS011;55941;50.800;4.342;2022-10-01T11:15:10;23.65;;;3.50;;
34832;SDS011;55941;50.800;4.342;2022-10-01T11:17:55;15.75;;;3.13;;
34832;SDS011;55941;50.800;4.342;2022-10-01T11:39:19;20.80;;;3.67;;
34832;SDS011;55941;50.800;4.342;2022-10-01T11:41:49;19.48;;;2.95;;
34832;SDS011;55941;50.800;4.342;2022-10-01T11:46:57;18.80;;;3.25;;
34832;SDS011;55941;50.800;4.342;2022-10-01T11:52:31;17.63;;;3.30;;
34832;SDS011;55941;50.800;4.342;2022-10-01T11:58:40;15.20;;;3.55;;
34832;SDS011;55941;50.800;4.342;2022-10-01T12:01:20;14.00;;;2.78;;
34832;SDS011;55941;50.800;4.342;2022-10-01T12:06:22;17.60;;;3.30;;
34832;SDS011;55941;50.800;4.342;2022-10-01T12:08:56;24.23;;;3.93;;
34832;SDS011;55941;50.800;4.342;2022-10-01T12:11:34;14.40;;;2.92;;
34832;SDS011;55941;50.800;4.342;2022-10-01T12:14:13;18.30;;;3.10;;
34832;SDS011;55941;50.800;4.342;2022-10-01T12:16:57;18.10;;;3.85;;
34832;SDS011;55941;50.800;4.342;2022-10-01T12:19:34;18.85;;;3.63;;
34832;SDS011;55941;50.800;4.342;2022-10-01T12:22:45;20.95;;;3.20;;
34832;SDS011;55941;50.800;4.342;2022-10-01T12:30:35;14.63;;;2.67;;
34832;SDS011;55941;50.800;4.342;2022-10-01T12:33:28;12.40;;;2.50;;
34832;SDS011;55941;50.800;4.342;2022-10-01T12:36:33;27.83;;;3.70;;
34832;SDS011;55941;50.800;4.342;2022-10-01T12:42:24;15.85;;;3.20;;
34832;SDS011;55941;50.800;4.342;2022-10-01T12:52:58;11.18;;;2.70;;
34832;SDS011;55941;50.800;4.342;2022-10-01T12:58:24;18.13;;;2.90;;
34832;SDS011;55941;50.800;4.342;2022-10-01T13:01:08;9.93;;;2.42;;
34832;SDS011;55941;50.800;4.342;2022-10-01T13:06:39;13.57;;;3.53;;
34832;SDS011;55941;50.800;4.342;2022-10-01T13:15:02;15.85;;;2.80;;
34832;SDS011;55941;50.800;4.342;2022-10-01T13:20:09;9.35;;;2.65;;
34832;SDS011;55941;50.800;4.342;2022-10-01T13:22:44;13.52;;;2.60;;
34832;SDS011;55941;50.800;4.342;2022-10-01T13:27:55;13.15;;;2.47;;
34832;SDS011;55941;50.800;4.342;2022-10-01T13:30:51;10.68;;;2.25;;
34832;SDS011;55941;50.800;4.342;2022-10-01T13:33:28;10.65;;;2.33;;
34832;SDS011;55941;50.800;4.342;2022-10-01T13:36:02;8.60;;;2.10;;
34832;SDS011;55941;50.800;4.342;2022-10-01T13:41:06;11.48;;;2.33;;
34832;SDS011;55941;50.800;4.342;2022-10-01T13:43:50;11.17;;;2.50;;
34832;SDS011;55941;50.800;4.342;2022-10-01T13:46:25;11.32;;;2.40;;
34832;SDS011;55941;50.800;4.342;2022-10-01T13:49:00;10.45;;;2.13;;
34832;SDS011;55941;50.800;4.342;2022-10-01T13:51:38;10.63;;;2.10;;
34832;SDS011;55941;50.800;4.342;2022-10-01T13:54:11;14.20;;;2.40;;
34832;SDS011;55941;50.800;4.342;2022-10-01T13:56:47;9.55;;;2.13;;
34832;SDS011;55941;50.800;4.342;2022-10-01T13:59:24;10.95;;;2.58;;
34832;SDS011;55941;50.800;4.342;2022-10-01T14:01:58;10.40;;;2.50;;
34832;SDS011;55941;50.800;4.342;2022-10-01T14:04:32;8.25;;;2.35;;
34832;SDS011;55941;50.800;4.342;2022-10-01T14:07:16;10.32;;;2.28;;
34832;SDS011;55941;50.800;4.342;2022-10-01T14:09:48;9.60;;;2.65;;
34832;SDS011;55941;50.800;4.342;2022-10-01T14:12:18;9.50;;;2.10;;
34832;SDS011;55941;50.800;4.342;2022-10-01T14:15:18;12.80;;;2.65;;
34832;SDS011;55941;50.800;4.342;2022-10-01T14:18:11;15.20;;;2.40;;
34832;SDS011;55941;50.800;4.342;2022-10-01T14:23:35;13.90;;;2.17;;
34832;SDS011;55941;50.800;4.342;2022-10-01T14:29:04;12.57;;;2.20;;
34832;SDS011;55941;50.800;4.342;2022-10-01T14:31:56;12.27;;;2.45;;
34832;SDS011;55941;50.800;4.342;2022-10-01T14:37:19;16.48;;;2.67;;
34832;SDS011;55941;50.800;4.342;2022-10-01T14:39:45;13.77;;;2.25;;
34832;SDS011;55941;50.800;4.342;2022-10-01T14:42:24;11.48;;;1.83;;
34832;SDS011;55941;50.800;4.342;2022-10-01T14:44:49;15.50;;;2.20;;
34832;SDS011;55941;50.800;4.342;2022-10-01T14:47:20;15.07;;;2.03;;
34832;SDS011;55941;50.800;4.342;2022-10-01T14:49:48;16.77;;;2.63;;
34832;SDS011;55941;50.800;4.342;2022-10-01T14:57:41;15.98;;;2.10;;
34832;SDS011;55941;50.800;4.342;2022-10-01T15:02:48;9.15;;;2.20;;
34832;SDS011;55941;50.800;4.342;2022-10-01T15:05:24;15.40;;;3.13;;
34832;SDS011;55941;50.800;4.342;2022-10-01T15:08:01;10.75;;;2.00;;
34832;SDS011;55941;50.800;4.342;2022-10-01T15:10:58;10.95;;;2.38;;
34832;SDS011;55941;50.800;4.342;2022-10-01T15:13:37;13.15;;;2.75;;
34832;SDS011;55941;50.800;4.342;2022-10-01T15:16:16;12.10;;;2.42;;
34832;SDS011;55941;50.800;4.342;2022-10-01T15:19:08;9.07;;;2.25;;
34832;SDS011;55941;50.800;4.342;2022-10-01T15:21:37;10.63;;;2.42;;
34832;SDS011;55941;50.800;4.342;2022-10-01T15:24:23;13.00;;;2.25;;
34832;SDS011;55941;50.800;4.342;2022-10-01T15:27:14;10.73;;;2.13;;
34832;SDS011;55941;50.800;4.342;2022-10-01T15:29:43;15.27;;;2.63;;
34832;SDS011;55941;50.800;4.342;2022-10-01T15:32:14;17.80;;;3.13;;
34832;SDS011;55941;50.800;4.342;2022-10-01T15:34:43;12.35;;;2.70;;
34832;SDS011;55941;50.800;4.342;2022-10-01T15:37:17;23.40;;;2.70;;
34832;SDS011;55941;50.800;4.342;2022-10-01T15:39:52;12.75;;;2.55;;
34832;SDS011;55941;50.800;4.342;2022-10-01T15:52:36;12.73;;;2.70;;
34832;SDS011;55941;50.800;4.342;2022-10-01T15:56:06;19.33;;;3.25;;
34832;SDS011;55941;50.800;4.342;2022-10-01T16:03:29;20.20;;;3.92;;
34832;SDS011;55941;50.800;4.342;2022-10-01T16:06:04;16.40;;;3.20;;
34832;SDS011;55941;50.800;4.342;2022-10-01T16:11:19;22.50;;;3.17;;
34832;SDS011;55941;50.800;4.342;2022-10-01T16:13:50;14.98;;;3.00;;
34832;SDS011;55941;50.800;4.342;2022-10-01T16:16:36;14.95;;;2.60;;
34832;SDS011;55941;50.800;4.342;2022-10-01T16:22:11;18.63;;;3.40;;
34832;SDS011;55941;50.800;4.342;2022-10-01T16:24:59;21.80;;;3.88;;
34832;SDS011;55941;50.800;4.342;2022-10-01T16:27:33;15.20;;;2.83;;
34832;SDS011;55941;50.800;4.342;2022-10-01T16:30:09;12.07;;;3.78;;
34832;SDS011;55941;50.800;4.342;2022-10-01T16:32:36;18.13;;;3.53;;
34832;SDS011;55941;50.800;4.342;2022-10-01T16:35:13;14.75;;;3.42;;
34832;SDS011;55941;50.800;4.342;2022-10-01T16:37:39;20.67;;;3.03;;
34832;SDS011;55941;50.800;4.342;2022-10-01T16:40:05;14.57;;;3.45;;
34832;SDS011;55941;50.800;4.342;2022-10-01T16:42:31;20.73;;;3.63;;
34832;SDS011;55941;50.800;4.342;2022-10-01T16:45:01;15.23;;;3.03;;
34832;SDS011;55941;50.800;4.342;2022-10-01T16:47:28;14.63;;;2.80;;
34832;SDS011;55941;50.800;4.342;2022-10-01T16:49:53;14.98;;;3.45;;
34832;SDS011;55941;50.800;4.342;2022-10-01T16:52:19;19.83;;;3.58;;
34832;SDS011;55941;50.800;4.342;2022-10-01T16:54:45;15.55;;;3.35;;
34832;SDS011;55941;50.800;4.342;2022-10-01T16:57:12;20.27;;;3.67;;
34832;SDS011;55941;50.800;4.342;2022-10-01T16:59:39;17.73;;;3.85;;
34832;SDS011;55941;50.800;4.342;2022-10-01T17:02:07;23.77;;;5.40;;
34832;SDS011;55941;50.800;4.342;2022-10-01T17:04:38;18.25;;;3.60;;
34832;SDS011;55941;50.800;4.342;2022-10-01T17:07:04;16.08;;;3.67;;
34832;SDS011;55941;50.800;4.342;2022-10-01T17:09:30;20.88;;;3.95;;
34832;SDS011;55941;50.800;4.342;2022-10-01T17:11:55;19.40;;;3.53;;
34832;SDS011;55941;50.800;4.342;2022-10-01T17:14:22;17.75;;;3.95;;
34832;SDS011;55941;50.800;4.342;2022-10-01T17:16:48;16.17;;;3.70;;
34832;SDS011;55941;50.800;4.342;2022-10-01T17:19:15;25.15;;;3.80;;
34832;SDS011;55941;50.800;4.342;2022-10-01T17:21:42;17.85;;;3.95;;
34832;SDS011;55941;50.800;4.342;2022-10-01T17:24:10;16.92;;;4.85;;
34832;SDS011;55941;50.800;4.342;2022-10-01T17:26:39;22.20;;;4.63;;
34832;SDS011;55941;50.800;4.342;2022-10-01T17:29:07;26.67;;;5.05;;
34832;SDS011;55941;50.800;4.342;2022-10-01T17:31:37;22.85;;;4.80;;
34832;SDS011;55941;50.800;4.342;2022-10-01T17:34:05;16.55;;;4.40;;
34832;SDS011;55941;50.800;4.342;2022-10-01T17:36:31;17.50;;;3.85;;
34832;SDS011;55941;50.800;4.342;2022-10-01T17:38:57;18.73;;;4.40;;